createdAt,value
2023-07-17T00:00:46.114Z,110.30
2023-07-17T00:01:38.736Z,110.56
2023-07-17T00:02:37.665Z,110.66
2023-07-17T00:03:37.735Z,110.60
2023-07-17T00:04:37.644Z,111.17
2023-07-17T00:05:37.649Z,112.18
2023-07-17T00:06:37.666Z,114.02
2023-07-17T00:07:37.631Z,117.83
2023-07-17T00:08:37.654Z,117.36
2023-07-17T00:09:37.676Z,118.16
2023-07-17T00:10:37.658Z,119.47
2023-07-17T00:11:37.643Z,119.04
2023-07-17T00:12:37.697Z,119.25
2023-07-17T00:13:37.652Z,119.39
2023-07-17T00:14:37.628Z,120.56
2023-07-17T00:15:37.664Z,121.74
2023-07-17T00:16:37.711Z,123.60
2023-07-17T00:17:37.683Z,128.00
2023-07-17T00:18:37.649Z,127.14
2023-07-17T00:19:37.649Z,124.66
2023-07-17T00:20:37.642Z,129.07
2023-07-17T00:21:37.648Z,127.29
2023-07-17T00:22:37.668Z,126.52
2023-07-17T00:23:37.639Z,129.14
2023-07-17T00:24:37.661Z,131.58
2023-07-17T00:25:37.718Z,129.00
2023-07-17T00:27:56.822Z,25.00
2023-07-17T00:28:56.825Z,25.00
2023-07-17T00:29:56.830Z,25.00
2023-07-17T00:30:56.895Z,25.00
2023-07-17T00:31:56.835Z,25.00
2023-07-17T00:32:56.855Z,26.62
2023-07-17T00:33:56.843Z,25.00
2023-07-17T00:34:56.840Z,29.10
2023-07-17T00:35:56.864Z,29.13
2023-07-17T00:36:56.830Z,31.16
2023-07-17T00:37:56.836Z,29.39
2023-07-17T00:38:56.835Z,30.06
2023-07-17T00:39:56.858Z,27.95
2023-07-17T00:40:56.877Z,29.41
2023-07-17T00:41:56.846Z,31.00
2023-07-17T00:42:56.858Z,31.74
2023-07-17T00:43:56.870Z,32.60
2023-07-17T00:44:56.945Z,32.74
2023-07-17T00:45:56.957Z,33.08
2023-07-17T00:46:56.946Z,33.17
2023-07-17T00:47:56.953Z,33.55
2023-07-17T00:48:56.943Z,33.49
2023-07-17T00:49:56.951Z,33.81
2023-07-17T00:50:56.968Z,31.94
2023-07-17T00:51:56.951Z,36.72
2023-07-17T00:52:56.945Z,34.11
2023-07-17T00:53:56.957Z,33.89
2023-07-17T00:54:56.956Z,37.09
2023-07-17T00:55:56.982Z,35.28
2023-07-17T00:56:56.988Z,33.73
2023-07-17T00:57:56.963Z,36.26
2023-07-17T00:58:56.967Z,40.18
2023-07-17T00:59:56.973Z,38.76
2023-07-17T01:00:57.040Z,40.00
2023-07-17T01:01:56.987Z,36.04
2023-07-17T01:02:57.131Z,40.62
2023-07-17T01:03:56.995Z,39.07
2023-07-17T01:04:57.029Z,40.78
2023-07-17T01:05:57.042Z,39.77
2023-07-17T01:06:57.057Z,40.12
2023-07-17T01:07:57.071Z,41.00
2023-07-17T01:08:57.099Z,40.59
2023-07-17T01:09:57.129Z,38.43
2023-07-17T01:10:57.135Z,40.51
2023-07-17T01:11:57.185Z,44.40
2023-07-17T01:12:57.186Z,41.06
2023-07-17T01:13:57.227Z,42.92
2023-07-17T01:14:57.227Z,42.96
2023-07-17T01:15:57.266Z,44.01
2023-07-17T01:16:57.345Z,42.33
2023-07-17T01:17:57.317Z,41.01
2023-07-17T01:18:57.323Z,45.60
2023-07-17T01:19:57.314Z,43.79
2023-07-17T01:20:57.340Z,44.72
2023-07-17T01:21:57.406Z,44.94
2023-07-17T01:22:57.489Z,45.64
2023-07-17T01:23:57.517Z,43.89
2023-07-17T01:24:57.533Z,46.81
2023-07-17T01:25:57.656Z,41.09
2023-07-17T01:26:57.639Z,43.30
2023-07-17T01:27:57.692Z,46.35
2023-07-17T01:28:57.721Z,49.07
2023-07-17T01:29:57.751Z,45.26
2023-07-17T01:30:57.830Z,49.42
2023-07-17T01:31:57.835Z,49.50
2023-07-17T01:32:57.899Z,49.72
2023-07-17T01:33:57.836Z,49.73
2023-07-17T01:34:57.838Z,49.73
2023-07-17T01:35:57.842Z,48.88
2023-07-17T01:36:57.837Z,49.50
2023-07-17T01:37:57.830Z,48.39
2023-07-17T01:38:57.844Z,49.01
2023-07-17T01:39:57.843Z,49.62
2023-07-17T01:40:57.850Z,49.81
2023-07-17T01:41:57.856Z,48.78
2023-07-17T01:42:57.852Z,47.93
2023-07-17T01:43:57.845Z,48.62
2023-07-17T01:44:57.942Z,50.05
2023-07-17T01:45:57.942Z,49.14
2023-07-17T01:46:57.933Z,49.74
2023-07-17T01:47:57.975Z,50.82
2023-07-17T01:48:57.952Z,50.71
2023-07-17T01:49:57.920Z,49.95
2023-07-17T01:50:58.446Z,49.49
2023-07-17T01:51:57.986Z,49.12
2023-07-17T01:52:58.005Z,51.14
2023-07-17T01:53:58.169Z,50.42
2023-07-17T01:54:58.062Z,51.53
2023-07-17T01:55:58.102Z,49.12
2023-07-17T01:56:58.165Z,51.84
2023-07-17T01:57:58.205Z,51.36
2023-07-17T01:58:58.196Z,52.89
2023-07-17T01:59:58.201Z,50.98
2023-07-17T02:00:58.188Z,49.08
2023-07-17T02:01:58.221Z,49.83
2023-07-17T02:02:58.270Z,49.44
2023-07-17T02:03:59.010Z,50.25
2023-07-17T02:04:58.234Z,51.57
2023-07-17T02:05:58.232Z,51.48
2023-07-17T02:06:58.252Z,50.74
2023-07-17T02:07:58.269Z,52.45
2023-07-17T02:08:58.298Z,50.40
2023-07-17T02:09:58.323Z,46.60
2023-07-17T02:10:58.360Z,48.27
2023-07-17T02:11:58.342Z,49.23
2023-07-17T02:12:58.394Z,46.34
2023-07-17T02:13:58.352Z,44.14
2023-07-17T02:14:58.383Z,42.03
2023-07-17T02:15:58.481Z,43.83
2023-07-17T02:16:58.465Z,38.61
2023-07-17T02:17:58.392Z,37.19
2023-07-17T02:18:58.398Z,36.05
2023-07-17T02:19:58.383Z,36.82
2023-07-17T02:20:58.401Z,36.33
2023-07-17T02:21:58.404Z,37.52
2023-07-17T02:22:58.426Z,37.29
2023-07-17T02:23:58.438Z,35.36
2023-07-17T02:24:58.397Z,36.08
2023-07-17T02:25:58.436Z,34.77
2023-07-17T02:26:58.434Z,37.15
2023-07-17T02:27:58.404Z,35.03
2023-07-17T02:28:58.437Z,33.40
2023-07-17T02:29:58.436Z,34.24
2023-07-17T02:30:58.452Z,34.13
2023-07-17T02:31:58.469Z,30.82
2023-07-17T02:32:58.484Z,30.14
2023-07-17T02:33:58.446Z,31.87
2023-07-17T02:34:58.486Z,30.21
2023-07-17T02:35:58.498Z,28.07
2023-07-17T02:36:58.497Z,28.61
2023-07-17T02:37:58.491Z,31.03
2023-07-17T02:38:58.532Z,28.29
2023-07-17T02:39:58.546Z,28.62
2023-07-17T02:40:58.570Z,29.31
2023-07-17T02:41:58.573Z,29.50
2023-07-17T02:42:58.579Z,29.41
2023-07-17T02:43:58.567Z,30.69
2023-07-17T02:44:58.579Z,32.14
2023-07-17T02:45:58.639Z,30.14
2023-07-17T02:46:58.610Z,29.37
2023-07-17T02:47:58.671Z,26.77
2023-07-17T02:48:58.640Z,27.04
2023-07-17T02:49:58.640Z,27.50
2023-07-17T02:50:58.649Z,27.19
2023-07-17T02:51:58.661Z,35.50
2023-07-17T02:52:58.667Z,27.44
2023-07-17T02:53:58.727Z,31.60
2023-07-17T02:54:58.710Z,27.08
2023-07-17T02:55:58.737Z,32.30
2023-07-17T02:56:58.726Z,31.33
2023-07-17T02:57:58.721Z,27.58
2023-07-17T02:58:58.742Z,24.08
2023-07-17T02:59:58.731Z,24.67
2023-07-17T03:00:58.784Z,25.05
2023-07-17T03:01:58.820Z,25.25
2023-07-17T03:02:58.771Z,30.65
2023-07-17T03:03:58.762Z,29.47
2023-07-17T03:04:58.781Z,28.62
2023-07-17T03:05:58.796Z,27.81
2023-07-17T03:06:58.777Z,27.38
2023-07-17T03:07:58.793Z,27.91
2023-07-17T03:08:58.792Z,27.54
2023-07-17T03:09:58.794Z,26.36
2023-07-17T03:10:58.824Z,25.00
2023-07-17T03:11:58.828Z,25.49
2023-07-17T03:12:58.814Z,25.00
2023-07-17T03:13:58.830Z,27.28
2023-07-17T03:14:58.848Z,25.68
2023-07-17T03:15:58.889Z,26.51
2023-07-17T03:16:58.865Z,25.00
2023-07-17T03:17:58.897Z,25.00
2023-07-17T03:18:58.879Z,31.84
2023-07-17T03:19:58.884Z,26.88
2023-07-17T03:20:58.920Z,26.94
2023-07-17T03:21:58.901Z,29.47
2023-07-17T03:22:59.033Z,30.60
2023-07-17T03:23:58.916Z,36.79
2023-07-17T03:24:58.924Z,38.71
2023-07-17T03:25:58.974Z,36.41
2023-07-17T03:26:58.977Z,36.27
2023-07-17T03:27:59.030Z,28.51
2023-07-17T03:28:59.042Z,24.55
2023-07-17T03:29:59.065Z,23.08
2023-07-17T03:30:59.145Z,26.71
2023-07-17T03:31:59.165Z,26.78
2023-07-17T03:32:59.248Z,24.47
2023-07-17T03:33:59.151Z,26.77
2023-07-17T03:34:59.162Z,25.41
2023-07-17T03:35:59.158Z,20.64
2023-07-17T03:36:59.149Z,20.74
2023-07-17T03:37:59.149Z,20.32
2023-07-17T03:38:59.173Z,27.59
2023-07-17T03:39:59.190Z,26.16
2023-07-17T03:40:59.188Z,27.63
2023-07-17T03:41:59.180Z,28.87
2023-07-17T03:42:59.184Z,26.40
2023-07-17T03:43:59.197Z,27.99
2023-07-17T03:44:59.219Z,32.65
2023-07-17T03:45:59.241Z,26.55
2023-07-17T03:46:59.236Z,31.85
2023-07-17T03:47:59.239Z,28.60
2023-07-17T03:48:59.203Z,25.27
2023-07-17T03:49:59.240Z,28.08
2023-07-17T03:51:02.745Z,28.61
2023-07-17T03:51:59.285Z,31.31
2023-07-17T03:52:59.273Z,28.29
2023-07-17T03:53:59.309Z,27.57
2023-07-17T03:54:59.319Z,27.04
2023-07-17T03:55:59.345Z,27.82
2023-07-17T03:56:59.327Z,25.48
2023-07-17T03:57:59.349Z,25.08
2023-07-17T03:58:59.366Z,28.36
2023-07-17T03:59:59.346Z,29.36
2023-07-17T04:00:59.382Z,32.61
2023-07-17T04:01:59.379Z,31.54
2023-07-17T04:02:59.426Z,31.85
2023-07-17T04:03:59.486Z,32.41
2023-07-17T04:04:59.411Z,33.62
2023-07-17T04:05:59.465Z,35.58
2023-07-17T04:06:59.414Z,37.46
2023-07-17T04:07:59.437Z,40.10
2023-07-17T04:09:00.271Z,39.07
2023-07-17T04:09:59.441Z,40.00
2023-07-17T04:10:59.462Z,41.09
2023-07-17T04:11:59.464Z,40.96
2023-07-17T04:12:59.481Z,43.51
2023-07-17T04:13:59.476Z,40.41
2023-07-17T04:14:59.494Z,40.63
2023-07-17T04:15:59.567Z,40.92
2023-07-17T04:16:59.564Z,40.61
2023-07-17T04:17:59.616Z,41.09
2023-07-17T04:18:59.659Z,40.76
2023-07-17T04:19:59.700Z,43.96
2023-07-17T04:20:59.754Z,42.38
2023-07-17T04:21:59.792Z,37.80
2023-07-17T04:22:59.900Z,39.03
2023-07-17T04:23:59.936Z,44.92
2023-07-17T04:24:59.964Z,44.73
2023-07-17T04:26:00.057Z,47.35
2023-07-17T04:27:00.107Z,47.23
2023-07-17T04:28:00.143Z,45.78
2023-07-17T04:29:00.199Z,48.09
2023-07-17T04:30:00.239Z,47.21
2023-07-17T04:31:00.373Z,46.02
2023-07-17T04:32:00.384Z,47.69
2023-07-17T04:33:00.455Z,44.39
2023-07-17T04:34:00.475Z,50.95
2023-07-17T04:35:00.546Z,46.41
2023-07-17T04:36:00.635Z,47.81
2023-07-17T04:37:00.674Z,46.80
2023-07-17T04:38:00.718Z,48.60
2023-07-17T04:39:00.786Z,47.85
2023-07-17T04:40:00.903Z,43.38
2023-07-17T04:41:00.921Z,45.78
2023-07-17T04:42:00.939Z,45.99
2023-07-17T04:43:00.940Z,46.39
2023-07-17T04:44:00.918Z,45.62
2023-07-17T04:45:00.942Z,48.87
2023-07-17T04:46:00.947Z,47.31
2023-07-17T04:47:01.040Z,48.89
2023-07-17T04:48:01.065Z,49.16
2023-07-17T04:49:00.995Z,49.56
2023-07-17T04:50:00.973Z,49.89
2023-07-17T04:51:01.002Z,50.74
2023-07-17T04:52:01.034Z,48.43
2023-07-17T04:53:02.169Z,46.41
2023-07-17T04:54:01.007Z,46.63
2023-07-17T04:55:01.055Z,45.61
2023-07-17T04:56:01.061Z,40.10
2023-07-17T04:57:01.049Z,41.71
2023-07-17T04:58:01.065Z,35.22
2023-07-17T04:59:01.087Z,39.47
2023-07-17T05:00:01.158Z,36.27
2023-07-17T05:01:01.272Z,35.12
2023-07-17T05:02:01.263Z,31.42
2023-07-17T05:03:01.423Z,29.61
2023-07-17T05:04:01.442Z,29.68
2023-07-17T05:05:01.369Z,30.02
2023-07-17T05:06:01.352Z,29.21
2023-07-17T05:07:01.354Z,29.17
2023-07-17T05:08:01.373Z,25.81
2023-07-17T05:09:02.751Z,25.00
2023-07-17T05:10:01.392Z,29.48
2023-07-17T05:11:01.422Z,32.34
2023-07-17T05:12:01.406Z,32.41
2023-07-17T05:13:01.411Z,25.33
2023-07-17T05:14:01.418Z,24.01
2023-07-17T05:15:01.436Z,26.36
2023-07-17T05:16:01.466Z,26.00
2023-07-17T05:17:01.535Z,27.35
2023-07-17T05:18:01.496Z,31.11
2023-07-17T05:19:01.485Z,31.99
2023-07-17T05:20:01.492Z,31.49
2023-07-17T05:21:01.488Z,32.69
2023-07-17T05:22:01.486Z,41.91
2023-07-17T05:23:01.551Z,41.82
2023-07-17T05:24:01.501Z,40.32
2023-07-17T05:25:01.543Z,40.67
2023-07-17T05:26:01.564Z,43.08
2023-07-17T05:27:01.628Z,44.87
2023-07-17T05:28:01.661Z,48.70
2023-07-17T05:29:01.710Z,44.60
2023-07-17T05:30:01.752Z,47.09
2023-07-17T05:31:01.881Z,49.28
2023-07-17T05:32:01.825Z,49.87
2023-07-17T05:33:01.900Z,50.24
2023-07-17T05:34:01.906Z,53.62
2023-07-17T05:35:01.948Z,52.27
2023-07-17T05:36:01.994Z,51.12
2023-07-17T05:37:02.014Z,55.39
2023-07-17T05:38:02.040Z,54.57
2023-07-17T05:39:02.103Z,54.61
2023-07-17T05:40:02.083Z,54.84
2023-07-17T05:41:02.149Z,55.34
2023-07-17T05:42:02.151Z,55.77
2023-07-17T05:43:02.089Z,56.25
2023-07-17T05:44:02.098Z,61.73
2023-07-17T05:45:02.176Z,58.67
2023-07-17T05:46:02.167Z,59.71
2023-07-17T05:47:02.179Z,57.64
2023-07-17T05:48:02.163Z,63.63
2023-07-17T05:49:02.144Z,63.80
2023-07-17T05:50:03.124Z,59.63
2023-07-17T05:51:02.201Z,46.44
2023-07-17T05:52:02.203Z,39.26
2023-07-17T05:53:02.153Z,38.89
2023-07-17T05:54:02.255Z,46.61
2023-07-17T05:55:02.533Z,43.22
2023-07-17T05:56:02.214Z,42.23
2023-07-17T05:57:02.258Z,45.85
2023-07-17T05:58:02.267Z,50.29
2023-07-17T05:59:02.277Z,46.33
2023-07-17T06:00:02.349Z,48.67
2023-07-17T06:01:02.370Z,52.28
2023-07-17T06:02:02.349Z,52.47
2023-07-17T06:03:02.425Z,53.48
2023-07-17T06:04:02.542Z,53.86
2023-07-17T06:05:02.490Z,55.39
2023-07-17T06:06:02.353Z,58.60
2023-07-17T06:07:02.383Z,57.19
2023-07-17T06:08:02.395Z,57.26
2023-07-17T06:09:02.428Z,57.08
2023-07-17T06:10:02.394Z,61.52
2023-07-17T06:11:02.450Z,58.66
2023-07-17T06:12:02.477Z,57.41
2023-07-17T06:13:10.175Z,56.98
2023-07-17T06:14:02.427Z,57.18
2023-07-17T06:15:02.448Z,57.92
2023-07-17T06:16:02.455Z,57.63
2023-07-17T06:17:02.588Z,57.77
2023-07-17T06:18:02.541Z,58.45
2023-07-17T06:19:02.482Z,59.35
2023-07-17T06:20:02.477Z,61.89
2023-07-17T06:21:02.495Z,63.46
2023-07-17T06:22:02.505Z,62.49
2023-07-17T06:23:02.576Z,62.16
2023-07-17T06:24:02.504Z,59.05
2023-07-17T06:25:02.467Z,60.00
2023-07-17T06:26:02.528Z,58.01
2023-07-17T06:27:02.517Z,59.32
2023-07-17T06:28:02.509Z,60.00
2023-07-17T06:29:02.512Z,60.86
2023-07-17T06:30:02.512Z,55.60
2023-07-17T06:31:02.539Z,57.00
2023-07-17T06:32:02.679Z,53.42
2023-07-17T06:33:02.688Z,57.15
2023-07-17T06:34:02.728Z,54.23
2023-07-17T06:35:02.707Z,54.47
2023-07-17T06:36:02.731Z,54.66
2023-07-17T06:37:02.692Z,56.03
2023-07-17T06:38:02.770Z,56.73
2023-07-17T06:39:02.709Z,59.43
2023-07-17T06:40:02.703Z,59.63
2023-07-17T06:41:02.698Z,60.62
2023-07-17T06:42:02.731Z,63.78
2023-07-17T06:43:02.733Z,60.15
2023-07-17T06:44:02.790Z,61.48
2023-07-17T06:45:02.946Z,61.48
2023-07-17T06:46:02.961Z,62.29
2023-07-17T06:47:02.993Z,61.93
2023-07-17T06:48:03.004Z,62.94
2023-07-17T06:49:03.072Z,66.36
2023-07-17T06:50:03.123Z,62.95
2023-07-17T06:51:03.227Z,65.00
2023-07-17T06:52:03.149Z,60.10
2023-07-17T06:53:03.146Z,66.62
2023-07-17T06:54:03.324Z,66.31
2023-07-17T06:55:05.329Z,64.42
2023-07-17T06:56:03.441Z,69.02
2023-07-17T06:57:03.497Z,70.06
2023-07-17T06:58:03.581Z,71.13
2023-07-17T06:59:03.587Z,67.95
2023-07-17T07:00:03.615Z,56.82
2023-07-17T07:01:03.645Z,60.24
2023-07-17T07:02:03.840Z,61.02
2023-07-17T07:03:03.850Z,60.66
2023-07-17T07:04:03.873Z,52.55
2023-07-17T07:05:03.852Z,41.74
2023-07-17T07:06:03.902Z,23.37
2023-07-17T07:07:03.936Z,25.45
2023-07-17T07:08:03.996Z,27.74
2023-07-17T07:09:03.992Z,29.71
2023-07-17T07:10:04.390Z,25.95
2023-07-17T07:11:04.135Z,25.00
2023-07-17T07:12:04.135Z,25.00
2023-07-17T07:13:04.182Z,29.31
2023-07-17T07:14:04.237Z,25.34
2023-07-17T07:15:04.243Z,27.60
2023-07-17T07:16:04.306Z,25.04
2023-07-17T07:17:04.307Z,24.83
2023-07-17T07:18:04.427Z,25.00
2023-07-17T07:19:04.401Z,27.04
2023-07-17T07:20:04.457Z,25.00
2023-07-17T07:21:04.544Z,27.24
2023-07-17T07:22:04.541Z,29.04
2023-07-17T07:23:04.584Z,25.81
2023-07-17T07:24:04.601Z,25.71
2023-07-17T07:25:04.662Z,25.75
2023-07-17T07:26:04.622Z,23.78
2023-07-17T07:27:04.594Z,19.08
2023-07-17T07:28:04.614Z,16.98
2023-07-17T07:29:04.604Z,7.46
2023-07-17T07:30:04.661Z,23.85
2023-07-17T07:31:04.650Z,29.50
2023-07-17T07:32:04.713Z,23.54
2023-07-17T07:33:04.723Z,27.66
2023-07-17T07:34:04.764Z,28.43
2023-07-17T07:35:04.819Z,34.66
2023-07-17T07:36:04.888Z,27.08
2023-07-17T07:37:05.075Z,34.16
2023-07-17T07:38:05.031Z,40.91
2023-07-17T07:39:05.126Z,35.78
2023-07-17T07:40:05.260Z,32.93
2023-07-17T07:41:05.311Z,34.11
2023-07-17T07:42:05.375Z,28.50
2023-07-17T07:43:05.377Z,26.85
2023-07-17T07:44:05.509Z,25.00
2023-07-17T07:45:05.483Z,25.07
2023-07-17T07:46:05.496Z,25.58
2023-07-17T07:47:05.456Z,28.96
2023-07-17T07:48:05.509Z,32.19
2023-07-17T07:49:05.501Z,32.18
2023-07-17T07:50:05.554Z,31.50
2023-07-17T07:51:05.504Z,35.40
2023-07-17T07:52:05.571Z,38.11
2023-07-17T07:53:05.597Z,42.08
2023-07-17T07:54:05.668Z,44.32
2023-07-17T07:55:05.776Z,45.67
2023-07-17T07:56:05.855Z,41.86
2023-07-17T07:57:05.878Z,36.65
2023-07-17T07:58:06.065Z,38.37
2023-07-17T07:59:06.055Z,30.26
2023-07-17T08:00:06.078Z,33.99
2023-07-17T08:01:06.193Z,31.77
2023-07-17T08:02:06.295Z,35.53
2023-07-17T08:03:06.396Z,37.02
2023-07-17T08:04:06.395Z,30.84
2023-07-17T08:05:06.483Z,28.92
2023-07-17T08:06:06.544Z,30.64
2023-07-17T08:07:06.577Z,27.89
2023-07-17T08:08:06.658Z,29.65
2023-07-17T08:09:06.762Z,33.75
2023-07-17T08:10:06.831Z,30.23
2023-07-17T08:11:06.911Z,31.48
2023-07-17T08:12:06.969Z,25.00
2023-07-17T08:13:07.029Z,29.36
2023-07-17T08:14:07.002Z,29.42
2023-07-17T08:15:07.000Z,30.38
2023-07-17T08:16:07.071Z,20.60
2023-07-17T08:17:07.053Z,20.41
2023-07-17T08:18:07.041Z,20.48
2023-07-17T08:19:07.058Z,29.48
2023-07-17T08:20:07.007Z,29.98
2023-07-17T08:21:07.088Z,32.96
2023-07-17T08:22:07.039Z,30.49
2023-07-17T08:23:07.069Z,30.82
2023-07-17T08:24:07.025Z,36.18
2023-07-17T08:25:06.995Z,44.28
2023-07-17T08:26:07.056Z,59.57
2023-07-17T08:27:06.991Z,77.66
2023-07-17T08:28:06.994Z,82.81
2023-07-17T08:29:06.978Z,80.31
2023-07-17T08:30:07.033Z,84.38
2023-07-17T08:31:07.032Z,84.84
2023-07-17T08:32:07.099Z,88.22
2023-07-17T08:33:07.153Z,92.40
2023-07-17T08:34:07.181Z,90.96
2023-07-17T08:35:07.174Z,94.30
2023-07-17T08:36:07.209Z,97.22
2023-07-17T08:37:07.290Z,102.48
2023-07-17T08:38:07.283Z,103.11
2023-07-17T08:39:07.331Z,105.50
2023-07-17T08:40:07.388Z,105.82
2023-07-17T08:41:07.390Z,106.21
2023-07-17T08:42:07.420Z,105.89
2023-07-17T08:43:07.441Z,108.93
2023-07-17T08:44:07.497Z,116.94
2023-07-17T08:45:07.531Z,115.02
2023-07-17T08:46:07.702Z,118.39
2023-07-17T08:47:07.607Z,122.96
2023-07-17T08:48:07.686Z,122.03
2023-07-17T08:49:07.685Z,128.73
2023-07-17T08:50:07.681Z,128.48
2023-07-17T08:51:07.744Z,132.03
2023-07-17T08:52:07.740Z,135.08
2023-07-17T08:53:07.780Z,135.25
2023-07-17T08:54:20.014Z,135.62
2023-07-17T08:55:08.719Z,135.41
2023-07-17T08:56:07.715Z,136.64
2023-07-17T08:57:07.681Z,139.20
2023-07-17T08:58:07.672Z,143.40
2023-07-17T08:59:07.683Z,149.54
2023-07-17T09:00:07.669Z,151.87
2023-07-17T09:01:07.714Z,159.84
2023-07-17T09:02:07.698Z,162.11
2023-07-17T09:03:07.762Z,161.90
2023-07-17T09:04:07.632Z,164.55
2023-07-17T09:05:07.601Z,166.89
2023-07-17T09:06:07.598Z,166.05
2023-07-17T09:07:07.582Z,165.98
2023-07-17T09:08:07.602Z,170.77
2023-07-17T09:09:07.563Z,171.74
2023-07-17T09:10:07.572Z,169.11
2023-07-17T09:11:07.536Z,173.34
2023-07-17T09:12:07.543Z,172.23
2023-07-17T09:13:07.567Z,175.50
2023-07-17T09:14:07.584Z,177.88
2023-07-17T09:15:07.615Z,176.19
2023-07-17T09:16:07.598Z,177.80
2023-07-17T09:17:07.624Z,179.50
2023-07-17T09:18:07.718Z,179.17
2023-07-17T09:19:07.582Z,180.65
2023-07-17T09:20:07.628Z,183.14
2023-07-17T09:21:07.623Z,182.75
2023-07-17T09:22:07.933Z,184.37
2023-07-17T09:23:07.672Z,183.93
2023-07-17T09:24:07.600Z,184.20
2023-07-17T09:25:07.606Z,185.22
2023-07-17T09:26:07.633Z,190.65
2023-07-17T09:27:07.701Z,187.99
2023-07-17T09:28:07.601Z,189.90
2023-07-17T09:29:07.641Z,191.93
2023-07-17T09:30:07.605Z,192.08
2023-07-17T09:31:07.635Z,192.53
2023-07-17T09:32:07.609Z,192.99
2023-07-17T09:33:07.727Z,196.58
2023-07-17T09:34:07.572Z,197.61
2023-07-17T09:35:07.552Z,193.62
2023-07-17T09:36:07.547Z,193.89
2023-07-17T09:37:07.795Z,194.47
2023-07-17T09:38:07.541Z,196.00
2023-07-17T09:39:07.508Z,197.82
2023-07-17T09:40:07.484Z,202.44
2023-07-17T09:41:07.501Z,204.81
2023-07-17T09:42:07.504Z,204.96
2023-07-17T09:43:07.482Z,205.15
2023-07-17T09:44:07.493Z,205.22
2023-07-17T09:45:07.466Z,206.03
2023-07-17T09:46:07.431Z,206.86
2023-07-17T09:47:09.334Z,208.19
2023-07-17T09:48:07.542Z,207.53
2023-07-17T09:49:07.401Z,208.41
2023-07-17T09:50:07.740Z,212.04
2023-07-17T09:51:07.368Z,209.40
2023-07-17T09:52:07.369Z,208.54
2023-07-17T09:53:07.344Z,210.14
2023-07-17T09:54:07.341Z,212.29
2023-07-17T09:55:07.283Z,213.85
2023-07-17T09:56:07.305Z,212.72
2023-07-17T09:57:07.282Z,216.01
2023-07-17T09:58:07.239Z,218.33
2023-07-17T09:59:07.285Z,211.86
2023-07-17T10:00:07.222Z,215.42
2023-07-17T10:01:07.259Z,213.99
2023-07-17T10:02:07.186Z,216.92
2023-07-17T10:03:07.347Z,216.94
2023-07-17T10:04:07.265Z,218.78
2023-07-17T10:05:07.123Z,217.76
2023-07-17T10:06:07.097Z,220.52
2023-07-17T10:07:07.121Z,219.95
2023-07-17T10:08:07.114Z,219.06
2023-07-17T10:09:07.062Z,219.29
2023-07-17T10:10:07.876Z,219.56
2023-07-17T10:11:06.998Z,219.14
2023-07-17T10:12:06.992Z,220.20
2023-07-17T10:13:06.965Z,224.43
2023-07-17T10:14:06.923Z,219.38
2023-07-17T10:15:06.942Z,220.23
2023-07-17T10:16:06.903Z,221.19
2023-07-17T10:17:06.939Z,224.27
2023-07-17T10:18:06.922Z,219.31
2023-07-17T10:19:06.870Z,219.99
2023-07-17T10:20:06.846Z,221.09
2023-07-17T10:21:06.845Z,222.67
2023-07-17T10:22:06.815Z,224.06
2023-07-17T10:23:06.882Z,226.02
2023-07-17T10:24:06.784Z,222.49
2023-07-17T10:25:06.775Z,223.53
2023-07-17T10:26:06.739Z,222.59
2023-07-17T10:27:06.721Z,221.14
2023-07-17T10:28:06.745Z,221.40
2023-07-17T10:29:06.680Z,222.53
2023-07-17T10:30:06.684Z,221.35
2023-07-17T10:31:06.675Z,224.28
2023-07-17T10:32:06.649Z,221.23
2023-07-17T10:33:06.700Z,223.14
2023-07-17T10:34:06.590Z,224.54
2023-07-17T10:35:06.560Z,226.61
2023-07-17T10:36:06.580Z,228.91
2023-07-17T10:37:06.524Z,232.42
2023-07-17T10:38:06.492Z,233.08
2023-07-17T10:39:06.530Z,233.67
2023-07-17T10:40:06.491Z,235.65
2023-07-17T10:41:06.450Z,238.46
2023-07-17T10:42:06.432Z,239.16
2023-07-17T10:43:06.411Z,242.85
2023-07-17T10:44:18.100Z,231.43
2023-07-17T10:45:07.351Z,227.00
2023-07-17T10:46:06.412Z,227.62
2023-07-17T10:47:06.347Z,220.94
2023-07-17T10:48:07.505Z,217.40
2023-07-17T10:49:06.305Z,217.28
2023-07-17T10:50:06.234Z,215.25
2023-07-17T10:51:06.240Z,212.71
2023-07-17T10:52:06.273Z,213.73
2023-07-17T10:53:06.171Z,214.50
2023-07-17T10:54:06.167Z,218.06
2023-07-17T10:55:06.146Z,220.15
2023-07-17T10:56:06.109Z,224.68
2023-07-17T10:57:06.121Z,226.09
2023-07-17T10:58:06.078Z,226.53
2023-07-17T10:59:06.095Z,230.61
2023-07-17T11:00:06.059Z,227.46
2023-07-17T11:01:06.018Z,233.12
2023-07-17T11:02:06.135Z,235.50
2023-07-17T11:03:06.087Z,235.58
2023-07-17T11:04:06.000Z,236.17
2023-07-17T11:05:06.002Z,237.06
2023-07-17T11:06:05.968Z,238.51
2023-07-17T11:07:05.923Z,240.64
2023-07-17T11:08:05.979Z,244.14
2023-07-17T11:09:05.921Z,244.94
2023-07-17T11:10:05.905Z,241.19
2023-07-17T11:11:05.859Z,241.15
2023-07-17T11:12:05.848Z,241.27
2023-07-17T11:13:05.792Z,241.69
2023-07-17T11:14:05.846Z,241.39
2023-07-17T11:15:05.781Z,241.97
2023-07-17T11:16:05.720Z,238.35
2023-07-17T11:17:05.776Z,238.06
2023-07-17T11:18:05.870Z,236.76
2023-07-17T11:19:05.999Z,238.09
2023-07-17T11:20:05.676Z,231.86
2023-07-17T11:21:05.635Z,235.83
2023-07-17T11:22:05.632Z,232.51
2023-07-17T11:23:05.637Z,226.26
2023-07-17T11:24:05.618Z,226.02
2023-07-17T11:25:05.554Z,228.72
2023-07-17T11:26:05.582Z,229.18
2023-07-17T11:27:05.587Z,226.70
2023-07-17T11:28:05.524Z,223.33
2023-07-17T11:29:05.581Z,221.91
2023-07-17T11:30:05.447Z,222.04
2023-07-17T11:31:05.417Z,218.20
2023-07-17T11:32:05.491Z,218.36
2023-07-17T11:33:05.424Z,218.51
2023-07-17T11:34:05.359Z,219.23
2023-07-17T11:35:05.338Z,219.43
2023-07-17T11:36:05.306Z,218.69
2023-07-17T11:37:05.320Z,219.23
2023-07-17T11:38:05.286Z,218.01
2023-07-17T11:39:05.274Z,217.35
2023-07-17T11:40:05.303Z,212.62
2023-07-17T11:41:05.215Z,216.00
2023-07-17T11:42:05.440Z,214.00
2023-07-17T11:43:05.194Z,216.19
2023-07-17T11:44:05.164Z,217.25
2023-07-17T11:45:05.150Z,217.16
2023-07-17T11:46:05.220Z,213.13
2023-07-17T11:47:05.138Z,216.29
2023-07-17T11:48:05.171Z,214.46
2023-07-17T11:49:05.078Z,217.13
2023-07-17T11:50:05.058Z,215.73
2023-07-17T11:51:05.072Z,215.09
2023-07-17T11:52:05.036Z,215.10
2023-07-17T11:53:05.056Z,213.02
2023-07-17T11:54:04.984Z,212.92
2023-07-17T11:55:04.992Z,213.29
2023-07-17T11:56:04.959Z,209.87
2023-07-17T11:57:05.101Z,212.33
2023-07-17T11:58:05.409Z,212.46
2023-07-17T11:59:04.899Z,212.49
2023-07-17T12:00:04.931Z,213.74
2023-07-17T12:01:04.880Z,213.33
2023-07-17T12:02:04.877Z,213.75
2023-07-17T12:03:04.850Z,211.85
2023-07-17T12:04:04.814Z,210.72
2023-07-17T12:05:04.782Z,210.34
2023-07-17T12:06:04.751Z,210.87
2023-07-17T12:07:04.787Z,209.84
2023-07-17T12:08:04.697Z,209.13
2023-07-17T12:09:04.700Z,208.63
2023-07-17T12:10:04.643Z,207.48
2023-07-17T12:11:04.649Z,205.23
2023-07-17T12:12:04.646Z,201.95
2023-07-17T12:13:04.621Z,202.87
2023-07-17T12:14:04.577Z,204.60
2023-07-17T12:15:04.623Z,205.28
2023-07-17T12:16:04.623Z,204.09
2023-07-17T12:17:04.545Z,200.56
2023-07-17T12:18:04.550Z,201.12
2023-07-17T12:19:04.484Z,204.96
2023-07-17T12:20:04.444Z,203.42
2023-07-17T12:21:04.419Z,199.57
2023-07-17T12:23:04.462Z,198.52
2023-07-17T12:24:04.413Z,199.41
2023-07-17T12:25:04.378Z,196.98
2023-07-17T12:26:04.401Z,197.76
2023-07-17T12:27:04.826Z,195.67
2023-07-17T12:28:04.355Z,197.74
2023-07-17T12:29:04.608Z,195.98
2023-07-17T12:30:04.266Z,197.44
2023-07-17T12:31:04.269Z,198.35
2023-07-17T12:32:04.441Z,200.36
2023-07-17T12:33:04.247Z,197.17
2023-07-17T12:34:04.196Z,194.66
2023-07-17T12:35:04.171Z,198.07
2023-07-17T12:36:04.181Z,196.91
2023-07-17T12:37:04.147Z,196.68
2023-07-17T12:38:04.105Z,197.28
2023-07-17T12:39:04.111Z,195.86
2023-07-17T12:40:04.070Z,195.06
2023-07-17T12:41:04.047Z,193.73
2023-07-17T12:42:05.502Z,194.74
2023-07-17T12:43:04.025Z,194.13
2023-07-17T12:44:04.014Z,189.26
2023-07-17T12:45:03.984Z,190.73
2023-07-17T12:46:04.003Z,191.81